createdAt,value
2023-02-24T00:02:15.179Z,8.32
2023-02-24T00:04:44.221Z,8.82
2023-02-24T00:07:13.708Z,9.13
2023-02-24T00:09:44.725Z,8.70
2023-02-24T00:12:17.371Z,8.40
2023-02-24T00:14:46.977Z,8.45
2023-02-24T00:17:18.440Z,9.20
2023-02-24T00:19:47.684Z,8.82
2023-02-24T00:22:16.054Z,15.30
2023-02-24T00:24:44.783Z,17.42
2023-02-24T00:27:14.933Z,17.88
2023-02-24T00:29:47.516Z,18.65
2023-02-24T00:32:15.854Z,20.35
2023-02-24T00:34:44.333Z,19.85
2023-02-24T00:37:16.349Z,21.45
2023-02-24T00:39:46.644Z,20.15
2023-02-24T00:42:20.187Z,19.42
2023-02-24T00:44:49.510Z,18.50
2023-02-24T00:47:18.615Z,19.90
2023-02-24T00:49:48.379Z,20.90
2023-02-24T00:52:20.502Z,20.92
2023-02-24T00:54:50.748Z,18.50
2023-02-24T00:57:21.699Z,17.38
2023-02-24T00:59:51.812Z,18.40
2023-02-24T01:02:21.525Z,19.90
2023-02-24T01:04:50.111Z,21.00
2023-02-24T01:07:18.828Z,22.15
2023-02-24T01:09:47.597Z,22.70
2023-02-24T01:12:33.504Z,19.98
2023-02-24T01:15:05.098Z,19.67
2023-02-24T01:17:33.898Z,19.80
2023-02-24T01:20:15.851Z,19.38
2023-02-24T01:22:45.870Z,19.65
2023-02-24T01:25:14.425Z,18.67
2023-02-24T01:27:42.866Z,18.67
2023-02-24T01:30:16.338Z,19.05
2023-02-24T01:32:46.914Z,18.05
2023-02-24T01:35:15.908Z,19.10
2023-02-24T01:37:45.502Z,19.58
2023-02-24T01:40:21.827Z,22.85
2023-02-24T01:42:51.115Z,33.97
2023-02-24T01:45:28.854Z,32.28
2023-02-24T01:48:01.416Z,28.02
2023-02-24T01:50:32.989Z,24.17
2023-02-24T01:53:04.325Z,23.10
2023-02-24T01:55:36.974Z,23.98
2023-02-24T01:58:10.873Z,24.95
2023-02-24T02:00:45.475Z,21.85
2023-02-24T02:03:21.159Z,19.75
2023-02-24T02:05:51.790Z,13.27
2023-02-24T02:08:23.732Z,14.05
2023-02-24T02:10:59.182Z,12.93
2023-02-24T02:13:29.740Z,13.27
2023-02-24T02:16:14.745Z,13.80
2023-02-24T02:18:56.313Z,13.82
2023-02-24T02:21:58.510Z,15.00
2023-02-24T02:24:37.297Z,15.60
2023-02-24T02:27:21.462Z,15.23
2023-02-24T02:29:59.844Z,14.68
2023-02-24T02:32:52.222Z,16.08
2023-02-24T02:35:23.768Z,16.48
2023-02-24T02:37:56.405Z,17.33
2023-02-24T02:40:27.438Z,18.92
2023-02-24T02:42:57.872Z,18.58
2023-02-24T02:45:29.212Z,18.13
2023-02-24T02:48:00.815Z,16.05
2023-02-24T02:50:36.035Z,11.48
2023-02-24T02:53:08.025Z,9.48
2023-02-24T02:55:39.883Z,9.90
2023-02-24T02:58:10.029Z,8.73
2023-02-24T03:00:42.217Z,8.52
2023-02-24T03:03:13.468Z,8.73
2023-02-24T03:05:47.067Z,8.52
2023-02-24T03:08:16.433Z,8.73
2023-02-24T03:10:50.990Z,8.70
2023-02-24T03:13:22.407Z,8.73
2023-02-24T03:15:53.155Z,8.50
2023-02-24T03:18:29.160Z,8.32
2023-02-24T03:21:01.577Z,7.78
2023-02-24T03:23:33.233Z,8.75
2023-02-24T03:26:06.160Z,7.80
2023-02-24T03:28:37.608Z,7.97
2023-02-24T03:31:11.088Z,8.25
2023-02-24T03:33:41.532Z,6.53
2023-02-24T03:36:15.202Z,7.13
2023-02-24T03:38:43.949Z,6.90
2023-02-24T03:41:12.628Z,7.07
2023-02-24T03:43:44.994Z,7.40
2023-02-24T03:46:14.143Z,7.43
2023-02-24T03:48:46.506Z,7.60
2023-02-24T03:51:18.339Z,7.57
2023-02-24T03:53:54.606Z,7.70
2023-02-24T03:56:29.263Z,7.53
2023-02-24T03:59:04.715Z,7.95
2023-02-24T04:01:36.595Z,7.85
2023-02-24T04:04:09.149Z,7.72
2023-02-24T04:06:44.398Z,8.40
2023-02-24T04:09:16.847Z,7.82
2023-02-24T04:11:47.622Z,8.73
2023-02-24T04:14:19.594Z,7.95
2023-02-24T04:16:54.479Z,8.68
2023-02-24T04:19:24.492Z,8.68
2023-02-24T04:21:55.894Z,8.88
2023-02-24T04:24:27.740Z,8.55
2023-02-24T04:26:58.910Z,8.98
2023-02-24T04:29:35.478Z,9.00
2023-02-24T04:32:07.021Z,9.00
2023-02-24T04:34:36.164Z,8.65
2023-02-24T04:37:06.690Z,9.63
2023-02-24T04:39:38.461Z,9.68
2023-02-24T04:42:06.856Z,9.52
2023-02-24T04:44:35.425Z,10.15
2023-02-24T04:47:04.009Z,10.13
2023-02-24T04:49:33.045Z,9.50
2023-02-24T04:52:06.145Z,10.02
2023-02-24T04:54:34.983Z,10.40
2023-02-24T04:57:04.279Z,9.90
2023-02-24T04:59:32.786Z,10.20
2023-02-24T05:02:01.809Z,10.25
2023-02-24T05:04:31.975Z,10.30
2023-02-24T05:07:00.692Z,10.93
2023-02-24T05:09:30.346Z,11.30
2023-02-24T05:11:58.756Z,11.23
2023-02-24T05:14:27.346Z,11.35
2023-02-24T05:17:00.412Z,11.48
2023-02-24T05:19:46.031Z,11.40
2023-02-24T05:22:17.028Z,13.10
2023-02-24T05:24:48.124Z,12.27
2023-02-24T05:27:17.437Z,12.40
2023-02-24T05:29:46.110Z,12.93
2023-02-24T05:32:16.407Z,12.18
2023-02-24T05:34:45.258Z,12.77
2023-02-24T05:37:16.792Z,12.25
2023-02-24T05:39:47.085Z,12.43
2023-02-24T05:42:17.160Z,11.95
2023-02-24T05:44:46.453Z,11.20
2023-02-24T05:47:16.717Z,13.38
2023-02-24T05:49:45.415Z,13.90
2023-02-24T05:52:14.606Z,13.65
2023-02-24T05:54:44.181Z,12.48
2023-02-24T05:57:17.144Z,12.43
2023-02-24T05:59:45.838Z,11.35
2023-02-24T06:02:16.016Z,11.85
2023-02-24T06:04:51.350Z,11.68
2023-02-24T06:07:22.131Z,11.98
2023-02-24T06:09:53.602Z,12.18
2023-02-24T06:12:24.317Z,11.77
2023-02-24T06:14:53.226Z,12.38
2023-02-24T06:17:23.037Z,11.77
2023-02-24T06:19:51.871Z,11.63
2023-02-24T06:22:22.647Z,11.77
2023-02-24T06:24:51.191Z,12.18
2023-02-24T06:27:21.713Z,11.93
2023-02-24T06:29:54.072Z,11.82
2023-02-24T06:32:24.528Z,12.48
2023-02-24T06:34:54.260Z,11.80
2023-02-24T06:37:23.929Z,11.70
2023-02-24T06:39:52.586Z,11.70
2023-02-24T06:42:21.251Z,11.23
2023-02-24T06:44:50.478Z,11.90
2023-02-24T06:47:22.892Z,12.05
2023-02-24T06:49:51.625Z,12.00
2023-02-24T06:52:19.968Z,11.43
2023-02-24T06:54:49.385Z,12.05
2023-02-24T06:57:18.419Z,12.73
2023-02-24T06:59:49.061Z,12.32
2023-02-24T07:02:18.066Z,12.60
2023-02-24T07:04:48.184Z,12.05
2023-02-24T07:07:17.635Z,12.20
2023-02-24T07:09:46.461Z,12.88
2023-02-24T07:12:21.064Z,11.98
2023-02-24T07:14:50.617Z,12.27
2023-02-24T07:17:20.096Z,12.27
2023-02-24T07:19:50.933Z,12.35
2023-02-24T07:22:25.266Z,11.60
2023-02-24T07:25:00.660Z,12.38
2023-02-24T07:27:30.254Z,13.00
2023-02-24T07:29:59.344Z,12.98
2023-02-24T07:32:28.470Z,11.98
2023-02-24T07:34:59.675Z,13.10
2023-02-24T07:37:31.897Z,13.25
2023-02-24T07:40:00.602Z,13.18
2023-02-24T07:42:30.695Z,12.85
2023-02-24T07:44:59.586Z,13.02
2023-02-24T07:47:29.681Z,13.75
2023-02-24T07:50:00.553Z,14.05
2023-02-24T07:52:32.789Z,15.00
2023-02-24T07:55:01.609Z,14.10
2023-02-24T07:57:33.379Z,14.45
2023-02-24T08:00:16.966Z,14.32
2023-02-24T08:02:46.185Z,13.90
2023-02-24T08:05:19.172Z,13.57
2023-02-24T08:07:49.930Z,13.48
2023-02-24T08:10:26.797Z,14.50
2023-02-24T08:13:03.133Z,14.43
2023-02-24T08:15:34.389Z,14.18
2023-02-24T08:18:03.798Z,14.27
2023-02-24T08:20:52.297Z,13.90
2023-02-24T08:23:23.706Z,14.95
2023-02-24T08:25:53.832Z,15.00
2023-02-24T08:28:27.017Z,14.88
2023-02-24T08:30:55.792Z,14.45
2023-02-24T08:33:24.224Z,14.85
2023-02-24T08:36:01.409Z,15.75
2023-02-24T08:38:40.111Z,15.80
2023-02-24T08:41:17.824Z,14.65
2023-02-24T08:43:47.652Z,15.13
2023-02-24T08:46:26.581Z,16.05
2023-02-24T08:49:00.926Z,17.17
2023-02-24T08:51:35.290Z,16.13
2023-02-24T08:54:11.430Z,16.13
2023-02-24T08:56:43.671Z,16.77
2023-02-24T08:59:29.348Z,16.85
2023-02-24T09:02:13.205Z,18.42
2023-02-24T09:04:45.014Z,20.55
2023-02-24T09:07:20.894Z,21.38
2023-02-24T09:09:50.000Z,21.83
2023-02-24T09:12:25.036Z,21.73
2023-02-24T09:14:58.764Z,22.25
2023-02-24T09:17:50.102Z,25.17
2023-02-24T09:20:38.205Z,22.63
2023-02-24T09:23:08.837Z,21.85
2023-02-24T09:25:44.856Z,21.92
2023-02-24T09:28:17.428Z,24.13
2023-02-24T09:30:54.688Z,22.80
2023-02-24T09:33:25.883Z,24.75
2023-02-24T09:36:09.837Z,25.00
2023-02-24T09:38:58.462Z,27.15
2023-02-24T09:41:34.263Z,26.83
2023-02-24T09:44:07.702Z,26.65
2023-02-24T09:46:54.162Z,27.40
2023-02-24T09:49:27.533Z,27.02
2023-02-24T09:52:09.091Z,27.90
2023-02-24T09:54:39.401Z,27.50
2023-02-24T09:57:18.016Z,28.90
2023-02-24T10:00:01.581Z,27.27
2023-02-24T10:02:44.579Z,29.65
2023-02-24T10:05:27.446Z,30.65
2023-02-24T10:08:00.660Z,28.33
2023-02-24T10:10:38.919Z,29.60
2023-02-24T10:13:17.215Z,28.60
2023-02-24T10:16:07.703Z,27.65
2023-02-24T10:18:44.587Z,29.58
2023-02-24T10:21:30.533Z,30.33
2023-02-24T10:24:10.261Z,29.83
2023-02-24T10:27:00.417Z,28.80
2023-02-24T10:29:43.891Z,30.20
2023-02-24T10:32:24.049Z,29.20
2023-02-24T10:34:53.801Z,29.25
2023-02-24T10:37:29.032Z,29.52
2023-02-24T10:40:09.862Z,28.90
2023-02-24T10:42:46.015Z,28.38
2023-02-24T10:45:19.358Z,28.10
2023-02-24T10:47:57.000Z,29.52
2023-02-24T10:50:32.550Z,29.00
2023-02-24T10:53:26.531Z,29.73
2023-02-24T10:56:15.280Z,32.60
2023-02-24T10:58:56.990Z,31.10
2023-02-24T11:01:54.877Z,32.28
2023-02-24T11:04:40.415Z,31.52
2023-02-24T11:07:24.426Z,32.90
2023-02-24T11:10:13.724Z,32.63
2023-02-24T11:13:10.130Z,32.35
2023-02-24T11:16:02.880Z,32.67
2023-02-24T11:18:33.391Z,32.20
2023-02-24T11:21:04.857Z,31.90
2023-02-24T11:23:36.932Z,31.05
2023-02-24T11:26:15.748Z,30.70
2023-02-24T11:29:10.859Z,32.15
2023-02-24T11:31:56.031Z,32.90
2023-02-24T11:34:33.426Z,33.83
2023-02-24T11:37:16.742Z,32.92
2023-02-24T11:39:54.318Z,33.65
2023-02-24T11:42:26.569Z,34.30
2023-02-24T11:45:01.514Z,35.47
2023-02-24T11:47:42.273Z,32.85
2023-02-24T11:50:30.967Z,32.60
2023-02-24T11:53:05.273Z,32.08
2023-02-24T11:55:38.884Z,32.50
2023-02-24T11:58:18.979Z,33.75
2023-02-24T12:00:56.518Z,32.10
2023-02-24T12:03:31.697Z,33.58
2023-02-24T12:06:15.112Z,31.80
2023-02-24T12:08:46.874Z,34.67
2023-02-24T12:11:22.260Z,33.13
2023-02-24T12:13:55.064Z,33.08
2023-02-24T12:16:30.984Z,32.60
2023-02-24T12:19:06.504Z,33.50
2023-02-24T12:21:41.193Z,32.20
2023-02-24T12:24:12.544Z,31.30
2023-02-24T12:26:54.755Z,32.75
2023-02-24T12:29:42.541Z,31.42
2023-02-24T12:32:21.137Z,31.85
2023-02-24T12:35:00.011Z,33.78
2023-02-24T12:37:46.673Z,31.42
2023-02-24T12:40:29.115Z,32.72
2023-02-24T12:43:07.066Z,29.20
2023-02-24T12:45:45.109Z,29.88
2023-02-24T12:48:23.516Z,29.40
2023-02-24T12:51:03.720Z,29.15
2023-02-24T12:53:42.592Z,30.40
2023-02-24T12:56:20.185Z,29.83
2023-02-24T12:58:51.409Z,31.75
2023-02-24T13:01:26.561Z,32.65
2023-02-24T13:04:13.024Z,30.95
2023-02-24T13:06:55.095Z,30.13
2023-02-24T13:09:33.829Z,28.60
2023-02-24T13:12:07.786Z,29.98
2023-02-24T13:14:38.580Z,28.50
2023-02-24T13:17:19.943Z,27.63
2023-02-24T13:19:49.916Z,26.70
2023-02-24T13:22:26.317Z,26.45
2023-02-24T13:25:02.947Z,26.17
2023-02-24T13:27:35.033Z,26.23
2023-02-24T13:30:08.700Z,25.48
2023-02-24T13:32:39.413Z,25.05
2023-02-24T13:35:34.362Z,25.73
2023-02-24T13:38:25.991Z,23.25
2023-02-24T13:40:54.339Z,23.73
2023-02-24T13:43:26.275Z,23.70
2023-02-24T13:46:00.652Z,23.05
2023-02-24T13:48:57.962Z,22.27
2023-02-24T13:51:53.039Z,23.17
2023-02-24T13:55:03.517Z,21.83
2023-02-24T13:58:00.078Z,21.73
2023-02-24T14:00:42.252Z,22.77
2023-02-24T14:03:12.918Z,22.75
2023-02-24T14:05:44.196Z,21.60
2023-02-24T14:08:22.381Z,21.80
2023-02-24T14:10:55.579Z,22.27
2023-02-24T14:13:28.083Z,22.27
2023-02-24T14:15:58.284Z,21.58
2023-02-24T14:18:28.966Z,22.38
2023-02-24T14:20:59.461Z,21.60
2023-02-24T14:23:31.676Z,21.48
2023-02-24T14:26:02.159Z,21.58
2023-02-24T14:28:32.783Z,21.90
2023-02-24T14:31:04.723Z,23.55
2023-02-24T14:33:36.292Z,22.52
2023-02-24T14:36:06.568Z,21.75
2023-02-24T14:38:39.464Z,21.42
2023-02-24T14:41:18.514Z,23.55
2023-02-24T14:43:46.909Z,21.92
2023-02-24T14:46:16.583Z,21.52
2023-02-24T14:48:53.184Z,22.42
2023-02-24T14:53:57.894Z,21.50
2023-02-24T14:56:32.261Z,22.15
2023-02-24T14:59:10.715Z,21.77
2023-02-24T15:01:41.994Z,21.58
2023-02-24T15:04:16.994Z,21.40
2023-02-24T15:06:46.148Z,21.02
2023-02-24T15:09:21.180Z,22.00
2023-02-24T15:11:53.322Z,20.95
2023-02-24T15:14:26.270Z,21.23
2023-02-24T15:17:00.164Z,21.88
2023-02-24T15:19:33.576Z,21.00
2023-02-24T15:22:03.377Z,21.27
2023-02-24T15:24:36.135Z,22.45
2023-02-24T15:27:22.590Z,21.67
2023-02-24T15:30:03.505Z,21.27
2023-02-24T15:32:35.249Z,21.83
2023-02-24T15:35:04.934Z,20.95
2023-02-24T15:37:42.155Z,21.90
2023-02-24T15:40:21.002Z,22.20
2023-02-24T15:42:56.340Z,22.77
2023-02-24T15:45:27.325Z,21.15
2023-02-24T15:47:58.800Z,21.33
2023-02-24T15:50:28.042Z,20.52
2023-02-24T15:52:59.390Z,21.20
2023-02-24T15:55:29.873Z,21.42
2023-02-24T15:58:02.223Z,21.90
2023-02-24T16:00:32.395Z,22.27
2023-02-24T16:03:01.322Z,21.30
2023-02-24T16:05:29.742Z,23.33
2023-02-24T16:07:58.894Z,24.15
2023-02-24T16:10:32.512Z,24.35
2023-02-24T16:13:04.976Z,25.75
2023-02-24T16:15:37.997Z,26.27
2023-02-24T16:18:14.221Z,27.17
2023-02-24T16:20:43.006Z,26.80
2023-02-24T16:23:12.086Z,27.73
2023-02-24T16:25:43.484Z,27.92
2023-02-24T16:28:15.720Z,27.58
2023-02-24T16:30:48.027Z,27.45
2023-02-24T16:33:18.819Z,27.45
2023-02-24T16:35:47.673Z,27.38
2023-02-24T16:38:18.954Z,25.98
2023-02-24T16:40:50.936Z,27.73
2023-02-24T16:43:19.518Z,27.85
2023-02-24T16:45:48.579Z,26.88
2023-02-24T16:48:21.904Z,26.13
2023-02-24T16:50:50.950Z,27.50
2023-02-24T16:53:22.724Z,26.73
2023-02-24T16:55:52.963Z,27.42
2023-02-24T16:58:23.354Z,26.95
2023-02-24T17:00:56.315Z,26.98
2023-02-24T17:03:28.657Z,26.58
2023-02-24T17:05:57.953Z,27.83
2023-02-24T17:08:26.709Z,27.40
2023-02-24T17:10:57.537Z,28.13
2023-02-24T17:13:26.422Z,25.50
2023-02-24T17:15:57.483Z,25.20
2023-02-24T17:18:27.760Z,32.28
2023-02-24T17:20:57.346Z,27.05
2023-02-24T17:23:26.057Z,26.67
2023-02-24T17:25:58.241Z,25.83
2023-02-24T17:28:26.942Z,25.05
2023-02-24T17:30:55.612Z,25.98
2023-02-24T17:33:24.142Z,25.27
2023-02-24T17:35:52.983Z,43.65
2023-02-24T17:38:24.234Z,51.50
2023-02-24T17:40:55.753Z,49.22
2023-02-24T17:43:26.124Z,45.53
2023-02-24T17:45:55.010Z,46.65
2023-02-24T17:48:23.585Z,49.85
2023-02-24T17:50:53.533Z,49.72
2023-02-24T17:53:23.535Z,48.15
2023-02-24T17:56:02.265Z,49.85
2023-02-24T17:58:33.810Z,51.55
2023-02-24T18:01:03.143Z,51.88
2023-02-24T18:03:32.221Z,50.22
2023-02-24T18:06:01.591Z,41.50
2023-02-24T18:08:30.724Z,48.40
2023-02-24T18:11:01.014Z,46.15
2023-02-24T18:13:31.226Z,45.53
2023-02-24T18:16:01.304Z,42.13
2023-02-24T18:18:30.404Z,51.78
2023-02-24T18:21:05.375Z,52.75
2023-02-24T18:23:34.361Z,51.95
2023-02-24T18:26:04.023Z,54.45
2023-02-24T18:28:33.822Z,58.70
2023-02-24T18:31:12.296Z,56.03
2023-02-24T18:33:40.953Z,54.28
2023-02-24T18:36:10.816Z,47.50
2023-02-24T18:38:41.057Z,49.40
2023-02-24T18:41:12.019Z,45.85
2023-02-24T18:43:40.818Z,46.78
2023-02-24T18:46:15.209Z,44.45
2023-02-24T18:48:45.996Z,51.28
2023-02-24T18:51:17.179Z,47.60
2023-02-24T18:53:45.982Z,46.95
2023-02-24T18:56:17.091Z,43.42
2023-02-24T18:58:46.848Z,43.53
2023-02-24T19:01:19.925Z,38.10
2023-02-24T19:03:50.682Z,33.53
2023-02-24T19:06:21.522Z,31.00
2023-02-24T19:08:56.691Z,59.25
2023-02-24T19:11:25.388Z,60.08
2023-02-24T19:13:54.474Z,63.20
2023-02-24T19:16:26.376Z,67.43
2023-02-24T19:18:56.662Z,63.85
2023-02-24T19:21:26.381Z,54.85
2023-02-24T19:23:55.174Z,55.70
2023-02-24T19:26:27.110Z,49.67
2023-02-24T19:28:58.244Z,26.58
2023-02-24T19:31:31.302Z,29.73
2023-02-24T19:34:02.947Z,27.15
2023-02-24T19:36:34.186Z,27.83
2023-02-24T19:39:03.176Z,30.08
2023-02-24T19:41:33.245Z,32.72
2023-02-24T19:44:02.480Z,32.05
2023-02-24T19:46:34.379Z,29.13
2023-02-24T19:49:03.182Z,28.70
2023-02-24T19:51:32.812Z,27.75
2023-02-24T19:54:05.945Z,27.40
2023-02-24T19:56:36.742Z,28.42
2023-02-24T19:59:08.462Z,27.15
2023-02-24T20:01:39.196Z,27.35
2023-02-24T20:04:09.782Z,27.20
2023-02-24T20:06:41.227Z,27.30
2023-02-24T20:09:15.899Z,29.58
2023-02-24T20:11:46.220Z,26.92
2023-02-24T20:14:17.162Z,27.33
2023-02-24T20:16:49.066Z,27.02
2023-02-24T20:19:18.570Z,26.95
2023-02-24T20:21:47.806Z,27.02
2023-02-24T20:24:17.985Z,27.65
2023-02-24T20:26:49.707Z,32.80
2023-02-24T20:29:20.800Z,30.92
2023-02-24T20:31:51.782Z,27.67
2023-02-24T20:34:20.910Z,49.50
2023-02-24T20:36:50.080Z,45.40
2023-02-24T20:39:19.031Z,37.38
2023-02-24T20:41:47.662Z,34.88
2023-02-24T20:44:16.336Z,27.15
2023-02-24T20:46:44.851Z,33.28
2023-02-24T20:49:15.868Z,31.17
2023-02-24T20:51:45.207Z,29.20
2023-02-24T20:54:14.754Z,26.63
2023-02-24T20:56:46.356Z,25.35
2023-02-24T20:59:17.747Z,26.15
2023-02-24T21:01:47.808Z,26.48
2023-02-24T21:04:20.106Z,27.45
2023-02-24T21:06:49.068Z,26.27
2023-02-24T21:09:17.815Z,26.80
2023-02-24T21:11:46.697Z,26.00
2023-02-24T21:14:16.794Z,26.10
2023-02-24T21:16:47.080Z,26.23
2023-02-24T21:19:17.931Z,23.30
2023-02-24T21:21:46.745Z,24.05
2023-02-24T21:24:15.110Z,24.08
2023-02-24T21:26:44.074Z,25.15
2023-02-24T21:29:12.936Z,23.52
2023-02-24T21:31:42.025Z,22.60
2023-02-24T21:34:12.160Z,23.15
2023-02-24T21:36:42.337Z,22.58
2023-02-24T21:39:14.693Z,23.73
2023-02-24T21:41:43.740Z,23.55
2023-02-24T21:44:14.351Z,20.50
2023-02-24T21:46:43.250Z,22.90
2023-02-24T21:49:14.419Z,22.45
2023-02-24T21:51:45.932Z,22.20
2023-02-24T21:54:14.429Z,22.35
2023-02-24T21:56:43.940Z,22.13
2023-02-24T21:59:12.745Z,22.73
2023-02-24T22:01:44.121Z,21.08
2023-02-24T22:04:14.770Z,22.73
2023-02-24T22:06:45.887Z,21.17
2023-02-24T22:09:19.408Z,22.15
2023-02-24T22:11:50.855Z,21.77
2023-02-24T22:14:19.343Z,21.70
2023-02-24T22:16:47.699Z,20.60
2023-02-24T22:19:16.402Z,21.23
2023-02-24T22:21:46.829Z,19.58
2023-02-24T22:24:16.739Z,18.52
2023-02-24T22:26:46.064Z,19.55
2023-02-24T22:29:14.911Z,19.45
2023-02-24T22:31:47.586Z,18.80
2023-02-24T22:34:18.290Z,17.38
2023-02-24T22:36:48.713Z,18.63
2023-02-24T22:39:17.511Z,18.05
2023-02-24T22:41:47.623Z,18.05
2023-02-24T22:44:19.342Z,17.92
2023-02-24T22:46:48.510Z,19.02
2023-02-24T22:49:17.226Z,18.67
2023-02-24T22:51:45.777Z,17.42
2023-02-24T22:54:16.035Z,17.80
2023-02-24T22:56:44.612Z,17.15
2023-02-24T22:59:13.709Z,17.88
2023-02-24T23:01:43.817Z,17.23
2023-02-24T23:04:16.108Z,16.42
2023-02-24T23:06:45.499Z,16.83
2023-02-24T23:09:20.055Z,16.70
2023-02-24T23:11:49.404Z,16.55
2023-02-24T23:14:18.104Z,15.13
2023-02-24T23:16:48.435Z,15.45
2023-02-24T23:19:18.633Z,15.20
2023-02-24T23:21:50.923Z,15.57
2023-02-24T23:24:22.600Z,15.73
2023-02-24T23:26:53.876Z,15.52
2023-02-24T23:29:23.935Z,16.10
2023-02-24T23:31:53.417Z,16.67
2023-02-24T23:34:22.305Z,17.10
2023-02-24T23:36:50.844Z,16.85
2023-02-24T23:39:23.914Z,17.48
2023-02-24T23:41:57.614Z,17.95
2023-02-24T23:44:26.465Z,16.80
2023-02-24T23:46:54.978Z,17.02
2023-02-24T23:49:23.359Z,16.67
2023-02-24T23:51:51.868Z,17.05
2023-02-24T23:54:24.449Z,16.08
2023-02-24T23:56:52.845Z,16.20
2023-02-24T23:59:21.381Z,16.38
